createdAt,value
2018-11-07T00:01:36.899Z,8.46
2018-11-07T00:04:41.393Z,8.37
2018-11-07T00:07:45.777Z,8.43
2018-11-07T00:10:50.338Z,8.36
2018-11-07T00:14:05.046Z,8.34
2018-11-07T00:17:09.451Z,8.37
2018-11-07T00:20:13.979Z,8.28
2018-11-07T00:23:18.404Z,8.19
2018-11-07T00:26:22.861Z,8.23
2018-11-07T00:29:27.326Z,8.19
2018-11-07T00:32:31.850Z,8.16
2018-11-07T00:39:10.567Z,8.04
2018-11-07T00:42:15.133Z,8.11
2018-11-07T00:45:25.161Z,8.15
2018-11-07T00:48:30.334Z,8.13
2018-11-07T00:51:40.637Z,8.21
2018-11-07T00:54:46.128Z,8.16
2018-11-07T00:57:50.621Z,8.12
2018-11-07T01:00:56.056Z,8.14
2018-11-07T01:04:00.439Z,8.13
2018-11-07T01:07:05.928Z,8.00
2018-11-07T01:10:10.704Z,8.03
2018-11-07T01:13:15.120Z,7.91
2018-11-07T01:16:20.548Z,8.20
2018-11-07T01:19:31.106Z,8.32
2018-11-07T01:22:35.668Z,7.93
2018-11-07T01:25:46.308Z,7.86
2018-11-07T01:28:55.996Z,7.83
2018-11-07T01:32:00.534Z,7.77
2018-11-07T01:35:09.185Z,7.76
2018-11-07T01:38:13.684Z,7.69
2018-11-07T01:41:18.073Z,7.68
2018-11-07T01:44:22.569Z,7.70
2018-11-07T01:47:27.225Z,7.70
2018-11-07T01:50:32.121Z,7.82
2018-11-07T01:53:47.113Z,7.72
2018-11-07T01:56:51.810Z,7.69
2018-11-07T02:00:09.764Z,7.70
2018-11-07T02:03:14.259Z,7.79
2018-11-07T02:06:18.644Z,7.82
2018-11-07T02:09:22.837Z,7.84
2018-11-07T02:12:41.890Z,7.81
2018-11-07T02:15:54.265Z,7.89
2018-11-07T02:19:03.844Z,7.80
2018-11-07T02:22:08.735Z,7.82
2018-11-07T02:25:13.211Z,7.85
2018-11-07T02:28:17.628Z,8.09
2018-11-07T02:31:22.025Z,8.00
2018-11-07T02:34:32.491Z,7.68
2018-11-07T02:37:36.843Z,7.74
2018-11-07T02:40:43.309Z,8.00
2018-11-07T02:43:53.008Z,7.85
2018-11-07T02:46:57.437Z,7.53
2018-11-07T02:50:01.686Z,7.44
2018-11-07T02:53:10.408Z,7.38
2018-11-07T02:56:16.842Z,7.32
2018-11-07T02:59:21.003Z,7.33
2018-11-07T03:02:27.601Z,7.46
2018-11-07T03:05:32.011Z,7.36
2018-11-07T03:08:41.025Z,7.36
2018-11-07T03:11:45.365Z,7.42
2018-11-07T03:14:49.776Z,7.46
2018-11-07T03:17:54.153Z,7.58
2018-11-07T03:20:58.548Z,7.34
2018-11-07T03:24:03.096Z,7.24
2018-11-07T03:27:07.479Z,7.25
2018-11-07T03:30:13.959Z,7.26
2018-11-07T03:33:18.822Z,7.29
2018-11-07T03:36:23.306Z,7.29
2018-11-07T03:39:27.800Z,7.31
2018-11-07T03:42:32.293Z,7.28
2018-11-07T03:45:41.972Z,7.24
2018-11-07T03:48:51.776Z,7.32
2018-11-07T03:51:56.283Z,7.28
2018-11-07T03:55:00.844Z,7.21
2018-11-07T03:58:05.641Z,7.20
2018-11-07T04:01:10.081Z,7.20
2018-11-07T04:04:14.484Z,7.08
2018-11-07T04:07:18.926Z,7.10
2018-11-07T04:10:24.489Z,7.06
2018-11-07T04:13:28.892Z,7.03
2018-11-07T04:16:33.344Z,6.89
2018-11-07T04:19:39.962Z,6.83
2018-11-07T04:22:45.657Z,6.79
2018-11-07T04:25:50.245Z,6.80
2018-11-07T04:28:54.998Z,6.78
2018-11-07T04:31:59.972Z,6.74
2018-11-07T04:35:04.529Z,6.69
2018-11-07T04:38:09.178Z,6.63
2018-11-07T04:41:13.654Z,6.60
2018-11-07T04:44:18.166Z,6.53
2018-11-07T04:47:22.428Z,6.48
2018-11-07T04:50:28.820Z,6.47
2018-11-07T04:53:34.455Z,6.47
2018-11-07T04:56:39.050Z,6.44
2018-11-07T04:59:45.564Z,6.28
2018-11-07T05:02:50.094Z,6.32
2018-11-07T05:05:54.640Z,6.30
2018-11-07T05:08:59.096Z,6.29
2018-11-07T05:12:03.505Z,6.20
2018-11-07T05:15:08.661Z,6.25
2018-11-07T05:18:13.217Z,6.21
2018-11-07T05:21:17.706Z,6.23
2018-11-07T05:24:22.061Z,6.21
2018-11-07T05:27:26.507Z,6.18
2018-11-07T05:30:31.100Z,6.12
2018-11-07T05:33:35.480Z,6.12
2018-11-07T05:36:39.872Z,6.16
2018-11-07T05:39:44.282Z,6.33
2018-11-07T05:42:48.800Z,6.11
2018-11-07T05:45:58.940Z,5.82
2018-11-07T05:49:04.488Z,6.06
2018-11-07T05:52:08.948Z,5.90
2018-11-07T05:55:13.348Z,5.72
2018-11-07T05:58:17.761Z,5.57
2018-11-07T06:01:22.236Z,5.59
2018-11-07T06:04:26.812Z,5.64
2018-11-07T06:07:31.968Z,5.62
2018-11-07T06:10:36.430Z,5.66
2018-11-07T06:13:40.860Z,5.82
2018-11-07T06:16:45.416Z,5.75
2018-11-07T06:19:49.822Z,5.88
2018-11-07T06:22:54.328Z,5.74
2018-11-07T06:25:58.695Z,5.80
2018-11-07T06:29:03.108Z,5.79
2018-11-07T06:32:07.532Z,5.86
2018-11-07T06:35:12.344Z,5.77
2018-11-07T06:38:16.795Z,5.86
2018-11-07T06:41:21.264Z,5.98
2018-11-07T06:44:25.751Z,5.95
2018-11-07T06:47:30.150Z,6.04
2018-11-07T06:50:34.737Z,6.25
2018-11-07T06:53:39.235Z,6.42
2018-11-07T06:56:43.986Z,6.46
2018-11-07T06:59:48.493Z,6.76
2018-11-07T07:02:53.000Z,6.72
2018-11-07T07:05:57.541Z,6.58
2018-11-07T07:09:02.047Z,6.55
2018-11-07T07:12:06.633Z,6.51
2018-11-07T07:15:13.698Z,6.56
2018-11-07T07:18:18.198Z,6.78
2018-11-07T07:21:22.585Z,6.93
2018-11-07T07:24:27.060Z,7.13
2018-11-07T07:27:31.565Z,7.30
2018-11-07T07:30:39.490Z,7.49
2018-11-07T07:33:43.941Z,7.64
2018-11-07T07:36:48.485Z,7.93
2018-11-07T07:39:52.899Z,8.04
2018-11-07T07:42:57.384Z,8.15
2018-11-07T07:46:01.826Z,8.32
2018-11-07T07:49:07.341Z,8.53
2018-11-07T07:52:12.156Z,8.63
2018-11-07T07:55:16.544Z,8.78
2018-11-07T07:58:21.032Z,8.93
2018-11-07T08:01:25.513Z,9.04
2018-11-07T08:04:30.044Z,9.22
2018-11-07T08:07:34.730Z,9.26
2018-11-07T08:10:40.225Z,9.39
2018-11-07T08:13:44.758Z,9.53
2018-11-07T08:16:49.231Z,9.69
2018-11-07T08:19:53.697Z,9.74
2018-11-07T08:22:58.136Z,9.75
2018-11-07T08:26:02.521Z,9.90
2018-11-07T08:29:07.079Z,9.85
2018-11-07T08:32:11.540Z,9.81
2018-11-07T08:35:16.389Z,9.90
2018-11-07T08:38:20.928Z,9.99
2018-11-07T08:41:25.420Z,10.19
2018-11-07T08:44:29.993Z,10.32
2018-11-07T08:47:34.609Z,10.48
2018-11-07T08:50:40.352Z,10.64
2018-11-07T08:53:44.854Z,10.80
2018-11-07T08:56:49.621Z,11.06
2018-11-07T08:59:57.484Z,11.15
2018-11-07T09:03:02.028Z,11.28
2018-11-07T09:06:06.665Z,11.45
2018-11-07T09:09:12.465Z,11.53
2018-11-07T09:12:17.141Z,11.52
2018-11-07T09:15:22.915Z,11.48
2018-11-07T09:18:28.664Z,11.59
2018-11-07T09:21:33.412Z,11.67
2018-11-07T09:24:37.918Z,11.77
2018-11-07T09:27:42.828Z,11.93
2018-11-07T09:30:47.500Z,11.96
2018-11-07T09:33:52.189Z,11.98
2018-11-07T09:36:56.920Z,12.12
2018-11-07T09:40:01.540Z,12.34
2018-11-07T09:43:06.260Z,12.50
2018-11-07T09:46:10.960Z,12.64
2018-11-07T09:49:15.786Z,12.84
2018-11-07T09:52:20.427Z,13.13
2018-11-07T09:55:25.057Z,13.27
2018-11-07T09:58:29.610Z,13.48
2018-11-07T10:01:34.172Z,13.62
2018-11-07T10:04:38.721Z,13.74
2018-11-07T10:07:43.428Z,13.75
2018-11-07T10:10:48.004Z,13.82
2018-11-07T10:13:52.518Z,13.88
2018-11-07T10:16:57.205Z,13.93
2018-11-07T10:20:01.775Z,14.01
2018-11-07T10:23:06.469Z,14.15
2018-11-07T10:26:11.062Z,14.29
2018-11-07T10:29:15.832Z,14.36
2018-11-07T10:32:20.344Z,14.46
2018-11-07T10:35:25.039Z,14.52
2018-11-07T10:38:29.703Z,14.52
2018-11-07T10:41:34.354Z,14.59
2018-11-07T10:44:38.931Z,14.71
2018-11-07T10:47:45.131Z,14.79
2018-11-07T10:50:49.727Z,14.82
2018-11-07T10:53:54.533Z,14.80
2018-11-07T10:57:00.099Z,14.75
2018-11-07T11:00:05.594Z,14.90
2018-11-07T11:03:15.316Z,14.88
2018-11-07T11:06:20.018Z,15.03
2018-11-07T11:09:27.210Z,15.16
2018-11-07T11:12:31.797Z,15.15
2018-11-07T11:15:36.478Z,15.19
2018-11-07T11:18:41.215Z,15.27
2018-11-07T11:21:45.912Z,15.17
2018-11-07T11:24:50.738Z,15.27
2018-11-07T11:27:55.434Z,15.36
2018-11-07T11:31:00.172Z,15.40
2018-11-07T11:34:05.376Z,15.52
2018-11-07T11:37:10.043Z,15.65
2018-11-07T11:40:16.356Z,15.77
2018-11-07T11:43:20.984Z,15.85
2018-11-07T11:46:25.584Z,15.92
2018-11-07T11:49:30.192Z,15.94
2018-11-07T11:52:35.869Z,15.97
2018-11-07T11:55:40.444Z,15.98
2018-11-07T11:58:46.438Z,16.19
2018-11-07T12:01:50.986Z,16.10
2018-11-07T12:04:55.583Z,16.06
2018-11-07T12:08:00.172Z,15.99
2018-11-07T12:11:04.858Z,16.02
2018-11-07T12:14:09.586Z,16.26
2018-11-07T12:17:14.309Z,16.37
2018-11-07T12:20:19.145Z,16.49
2018-11-07T12:23:23.799Z,16.66
2018-11-07T12:26:28.663Z,16.94
2018-11-07T12:29:33.679Z,16.95
2018-11-07T12:32:38.368Z,17.05
2018-11-07T12:35:42.945Z,17.05
2018-11-07T12:38:47.820Z,17.20
2018-11-07T12:41:52.543Z,17.29
2018-11-07T12:44:57.354Z,17.29
2018-11-07T12:48:02.441Z,17.23
2018-11-07T12:51:07.319Z,17.34
2018-11-07T12:54:12.127Z,17.46
2018-11-07T12:57:17.543Z,17.47
2018-11-07T13:00:24.467Z,17.44
2018-11-07T13:03:30.222Z,17.49
2018-11-07T13:06:35.479Z,17.40
2018-11-07T13:09:44.948Z,17.30
2018-11-07T13:12:51.096Z,17.27
2018-11-07T13:15:58.033Z,17.22
2018-11-07T13:19:11.377Z,17.15
2018-11-07T13:22:18.525Z,17.12
2018-11-07T13:25:24.552Z,17.00
2018-11-07T13:28:29.478Z,17.01
2018-11-07T13:31:34.499Z,16.99
2018-11-07T13:34:39.507Z,16.97
2018-11-07T13:37:45.619Z,16.85
2018-11-07T13:40:50.540Z,16.92
2018-11-07T13:43:55.721Z,16.87
2018-11-07T13:47:01.169Z,16.91
2018-11-07T13:50:16.272Z,16.88
2018-11-07T13:53:21.332Z,16.79
2018-11-07T13:56:26.630Z,16.59
2018-11-07T13:59:31.310Z,16.45
2018-11-07T14:02:36.333Z,16.52
2018-11-07T14:05:41.262Z,16.39
2018-11-07T14:08:45.954Z,16.31
2018-11-07T14:11:51.301Z,16.20
2018-11-07T14:14:56.234Z,16.09
2018-11-07T14:18:01.054Z,16.05
2018-11-07T14:21:05.942Z,15.96
2018-11-07T14:24:11.553Z,15.95
2018-11-07T14:27:16.539Z,15.88
2018-11-07T14:30:22.439Z,15.71
2018-11-07T14:33:27.871Z,15.59
2018-11-07T14:36:33.296Z,15.60
2018-11-07T14:39:37.969Z,15.48
2018-11-07T14:42:42.640Z,15.31
2018-11-07T14:45:47.281Z,15.13
2018-11-07T14:48:51.728Z,15.05
2018-11-07T14:51:56.367Z,14.91
2018-11-07T14:55:02.237Z,14.76
2018-11-07T14:58:06.966Z,14.66
2018-11-07T15:01:11.973Z,14.61
2018-11-07T15:04:16.513Z,14.50
2018-11-07T15:07:21.166Z,14.40
2018-11-07T15:10:25.734Z,14.33
2018-11-07T15:13:30.431Z,14.31
2018-11-07T15:16:35.105Z,14.19
2018-11-07T15:19:39.483Z,14.09
2018-11-07T15:22:44.053Z,14.05
2018-11-07T15:25:48.681Z,13.87
2018-11-07T15:28:53.140Z,13.71
2018-11-07T15:31:57.505Z,13.50
2018-11-07T15:35:01.984Z,13.29
2018-11-07T15:38:06.533Z,13.08
2018-11-07T15:41:11.070Z,12.82
2018-11-07T15:44:15.629Z,12.67
2018-11-07T15:47:20.218Z,12.52
2018-11-07T15:50:30.357Z,12.37
2018-11-07T15:53:35.549Z,12.19
2018-11-07T15:56:40.275Z,12.28
2018-11-07T15:59:44.848Z,12.06
2018-11-07T16:02:50.267Z,11.84
2018-11-07T16:05:55.325Z,11.69
2018-11-07T16:12:26.594Z,11.48
2018-11-07T16:15:38.139Z,11.37
2018-11-07T16:19:04.902Z,11.21
2018-11-07T16:22:12.034Z,11.13
2018-11-07T16:25:20.864Z,11.17
2018-11-07T16:28:25.435Z,11.25
2018-11-07T16:31:29.787Z,11.39
2018-11-07T16:34:34.264Z,11.47
2018-11-07T16:37:38.801Z,11.23
2018-11-07T16:40:46.700Z,10.80
2018-11-07T16:43:53.083Z,10.31
2018-11-07T16:46:58.197Z,9.94
2018-11-07T16:50:02.820Z,9.77
2018-11-07T16:53:08.270Z,9.87
2018-11-07T16:56:13.808Z,10.30
2018-11-07T16:59:20.094Z,10.27
2018-11-07T17:02:25.592Z,9.88
2018-11-07T17:05:32.060Z,9.69
2018-11-07T17:08:36.507Z,9.58
2018-11-07T17:11:41.963Z,9.82
2018-11-07T17:14:46.485Z,9.81
2018-11-07T17:17:51.960Z,9.90
2018-11-07T17:20:56.576Z,9.58
2018-11-07T17:24:01.110Z,9.59
2018-11-07T17:27:05.759Z,9.61
2018-11-07T17:30:12.080Z,9.38
2018-11-07T17:33:16.745Z,9.60
2018-11-07T17:36:21.627Z,9.31
2018-11-07T17:39:26.148Z,9.19
2018-11-07T17:42:38.493Z,9.13
2018-11-07T17:45:46.049Z,9.38
2018-11-07T17:48:53.999Z,9.26
2018-11-07T17:52:02.940Z,9.14
2018-11-07T17:55:12.857Z,9.11
2018-11-07T17:58:22.993Z,9.09
2018-11-07T18:01:37.962Z,9.17
2018-11-07T18:04:44.894Z,9.25
2018-11-07T18:07:55.766Z,9.25
2018-11-07T18:11:07.196Z,9.27
2018-11-07T18:14:19.033Z,9.55
2018-11-07T18:17:35.941Z,9.56
2018-11-07T18:20:58.260Z,9.69
2018-11-07T18:24:02.916Z,9.81
2018-11-07T18:27:07.699Z,9.61
2018-11-07T18:30:14.462Z,9.56
2018-11-07T18:33:19.228Z,9.57
2018-11-07T18:36:24.284Z,9.53
2018-11-07T18:39:36.229Z,9.49
2018-11-07T18:42:41.983Z,9.40
2018-11-07T18:45:47.384Z,9.36
2018-11-07T18:48:53.496Z,9.11
2018-11-07T18:52:00.274Z,9.00
2018-11-07T18:55:06.587Z,8.84
2018-11-07T18:58:18.945Z,8.76
2018-11-07T19:01:30.009Z,8.66
2018-11-07T19:04:41.637Z,8.59
2018-11-07T19:07:54.114Z,8.61
2018-11-07T19:14:33.688Z,8.57
2018-11-07T19:17:38.500Z,8.53
2018-11-07T19:20:42.881Z,8.46
2018-11-07T19:23:47.290Z,8.44
2018-11-07T19:26:51.803Z,8.45
2018-11-07T19:29:56.121Z,8.36
2018-11-07T19:33:00.714Z,8.31
2018-11-07T19:36:05.478Z,8.36
2018-11-07T19:39:10.436Z,8.21
2018-11-07T19:42:14.828Z,8.24
2018-11-07T19:45:20.097Z,8.16
2018-11-07T19:48:24.516Z,8.17
2018-11-07T19:51:28.852Z,8.18
2018-11-07T19:54:33.161Z,8.18
2018-11-07T19:57:37.584Z,8.21
2018-11-07T20:00:41.893Z,8.39
2018-11-07T20:03:46.301Z,8.40
2018-11-07T20:06:51.008Z,8.64
2018-11-07T20:09:55.486Z,8.61
2018-11-07T20:13:00.009Z,8.32
2018-11-07T20:16:04.561Z,8.18
2018-11-07T20:19:09.073Z,8.05
2018-11-07T20:22:14.501Z,7.98
2018-11-07T20:25:18.899Z,7.97
2018-11-07T20:28:23.272Z,8.04
2018-11-07T20:31:27.715Z,8.00
2018-11-07T20:34:32.758Z,7.94
2018-11-07T20:37:37.153Z,8.10
2018-11-07T20:40:41.577Z,7.98
2018-11-07T20:43:46.014Z,7.98
2018-11-07T20:46:50.468Z,7.96
2018-11-07T20:49:55.146Z,7.93
2018-11-07T20:52:59.604Z,7.96
2018-11-07T20:56:04.247Z,7.91
2018-11-07T20:59:09.335Z,8.01
2018-11-07T21:02:13.705Z,7.86
2018-11-07T21:05:18.358Z,7.84
2018-11-07T21:08:22.767Z,7.75
2018-11-07T21:11:27.175Z,7.69
2018-11-07T21:14:31.618Z,7.65
2018-11-07T21:17:36.239Z,7.58
2018-11-07T21:20:40.874Z,7.61
2018-11-07T21:23:45.311Z,7.53
2018-11-07T21:26:49.926Z,7.48
2018-11-07T21:30:25.416Z,7.44
2018-11-07T21:33:29.911Z,7.38
2018-11-07T21:36:34.765Z,7.41
2018-11-07T21:39:39.142Z,7.35
2018-11-07T21:42:44.126Z,7.33
2018-11-07T21:45:48.637Z,7.24
2018-11-07T21:48:53.301Z,7.12
2018-11-07T21:51:57.729Z,7.05
2018-11-07T21:55:02.024Z,6.95
2018-11-07T21:58:06.575Z,6.89
2018-11-07T22:01:10.993Z,6.97
2018-11-07T22:04:15.334Z,6.92
2018-11-07T22:07:19.716Z,6.89
2018-11-07T22:10:24.031Z,6.87
2018-11-07T22:13:28.396Z,6.83
2018-11-07T22:16:32.824Z,6.79
2018-11-07T22:19:37.141Z,6.75
2018-11-07T22:22:41.474Z,6.73
2018-11-07T22:25:47.023Z,6.84
2018-11-07T22:28:51.325Z,6.70
2018-11-07T22:31:55.641Z,6.57
2018-11-07T22:35:00.009Z,6.55
2018-11-07T22:38:04.373Z,6.54
2018-11-07T22:41:08.693Z,6.48
2018-11-07T22:44:12.995Z,6.45
2018-11-07T22:47:17.336Z,6.39
2018-11-07T22:50:21.944Z,6.39
2018-11-07T22:53:26.252Z,6.44
2018-11-07T22:56:30.710Z,6.46
2018-11-07T22:59:35.034Z,6.52
2018-11-07T23:02:39.392Z,6.54
2018-11-07T23:05:43.710Z,6.57
2018-11-07T23:08:48.037Z,6.68
2018-11-07T23:11:52.562Z,6.35
2018-11-07T23:14:56.881Z,6.26
2018-11-07T23:18:01.190Z,6.05
2018-11-07T23:21:06.252Z,6.05
2018-11-07T23:24:10.782Z,6.16
2018-11-07T23:27:15.096Z,6.23
2018-11-07T23:30:19.401Z,6.35
2018-11-07T23:33:23.793Z,6.19
2018-11-07T23:36:28.108Z,6.47
2018-11-07T23:39:32.525Z,6.45
2018-11-07T23:42:36.872Z,6.25
2018-11-07T23:45:41.184Z,6.02
2018-11-07T23:48:45.556Z,6.01
2018-11-07T23:51:50.740Z,6.05
2018-11-07T23:54:55.309Z,6.08
2018-11-07T23:58:00.239Z,6.15
